Time;durP1;ratioP1;P1;durP2;ratioP2;P2;SDS_P1;SDS_P2;PMS_P1;PMS_P2;Temp;Humidity;BMP_temperature;BMP_pressure;BME280_temperature;BME280_humidity;BME280_pressure;Samples;Min_cycle;Max_cycle;Signal;HPM_P1;HPM_P2
2024/04/09 00:02:09;;;;;;;20.82;7.80;;;;;;;19.19;92.63;100004.53;4996155;57;1141035;-79
2024/04/09 00:07:15;;;;;;;17.90;5.93;;;;;;;19.14;92.82;100005.08;5079846;56;1140914;-78
2024/04/09 00:12:21;;;;;;;12.68;5.65;;;;;;;19.17;93.11;100004.72;5099514;55;1140812;-78
2024/04/09 00:17:34;;;;;;;14.07;5.05;;;;;;;19.23;93.19;100012.02;5018066;56;1140759;-79
2024/04/09 00:22:34;;;;;;;6.87;4.33;;;;;;;19.26;93.03;100012.13;5163962;55;1140710;-78
2024/04/09 00:27:40;;;;;;;7.30;4.20;;;;;;;19.24;93.10;100011.01;5185311;55;1138525;-78
2024/04/09 00:32:47;;;;;;;9.30;4.60;;;;;;;19.21;93.34;100014.06;5164749;55;1138820;-79
2024/04/09 00:38:06;;;;;;;8.93;4.95;;;;;;;19.18;93.91;100011.74;5111378;55;1138959;-78
2024/04/09 00:43:02;;;;;;;10.48;4.62;;;;;;;19.12;93.84;100012.48;5181427;55;1138565;-78
2024/04/09 00:48:08;;;;;;;11.12;4.92;;;;;;;19.11;94.43;100025.55;5112827;55;1140788;-79
2024/04/09 00:53:16;;;;;;;9.63;4.35;;;;;;;19.11;94.51;100026.89;5078512;56;1140788;-77
2024/04/09 00:58:23;;;;;;;11.25;4.58;;;;;;;19.10;94.30;100022.55;5099250;56;1138860;-79
2024/04/09 01:03:30;;;;;;;11.70;4.95;;;;;;;19.06;94.26;100025.30;5078904;56;1140867;-79
2024/04/09 01:08:36;;;;;;;7.45;5.20;;;;;;;19.09;94.68;100016.06;5078424;57;1140969;-80
2024/04/09 01:13:42;;;;;;;10.32;4.72;;;;;;;19.02;94.90;100011.94;5160851;55;1138672;-79
2024/04/09 01:18:48;;;;;;;10.18;4.87;;;;;;;18.95;94.65;100015.86;5078573;56;1140751;-79
2024/04/09 01:23:53;;;;;;;12.30;5.42;;;;;;;18.85;94.94;100010.46;5078115;56;1140769;-78
2024/04/09 01:28:59;;;;;;;6.05;5.25;;;;;;;18.79;95.21;100014.70;5098620;56;1141051;-79
2024/04/09 01:34:05;;;;;;;7.42;4.97;;;;;;;18.79;95.52;100023.28;5088962;55;1138697;-78
2024/04/09 01:39:14;;;;;;;7.62;4.87;;;;;;;18.74;95.65;100017.63;5079221;55;1138808;-79
2024/04/09 01:44:18;;;;;;;9.60;4.67;;;;;;;18.68;95.80;100021.86;5116255;56;1138674;-79
2024/04/09 01:49:25;;;;;;;9.10;4.48;;;;;;;18.62;95.89;100009.22;5163238;55;1266004;-78
2024/04/09 01:54:31;;;;;;;10.37;4.73;;;;;;;18.57;96.00;100014.25;5109316;56;1138479;-78
2024/04/09 01:59:39;;;;;;;9.20;4.87;;;;;;;18.47;95.93;100017.70;5109117;56;1140777;-79
2024/04/09 02:04:44;;;;;;;9.15;4.58;;;;;;;18.25;96.20;100029.60;5129396;56;1138523;-78
2024/04/09 02:09:51;;;;;;;9.00;4.47;;;;;;;18.11;97.20;100034.91;5029540;55;1138800;-79
2024/04/09 02:14:57;;;;;;;11.80;5.57;;;;;;;18.07;98.15;100032.25;5017185;56;1138651;-79
2024/04/09 02:20:04;;;;;;;8.48;5.28;;;;;;;17.93;98.48;100029.85;5098035;57;1140873;-78
2024/04/09 02:25:09;;;;;;;14.10;5.07;;;;;;;17.85;99.08;100040.63;5078901;56;1138712;-78
2024/04/09 02:30:15;;;;;;;8.33;5.13;;;;;;;17.76;99.23;100034.48;5079383;56;1140651;-79
2024/04/09 02:35:21;;;;;;;13.30;5.00;;;;;;;17.70;99.56;100042.39;5099496;56;1138580;-79
2024/04/09 02:40:27;;;;;;;12.00;4.70;;;;;;;17.68;100.00;100059.12;5117180;55;1140569;-79
2024/04/09 02:45:32;;;;;;;10.87;5.67;;;;;;;17.65;100.00;100060.80;5079843;56;1142545;-78
2024/04/09 02:50:38;;;;;;;17.17;8.80;;;;;;;17.57;100.00;100056.28;5099587;55;1143333;-79
2024/04/09 02:55:45;;;;;;;8.83;6.03;;;;;;;17.46;100.00;100066.88;5079470;55;1142647;-79
2024/04/09 03:00:51;;;;;;;15.37;7.10;;;;;;;17.46;100.00;100066.88;5080250;55;1140714;-78
2024/04/09 03:05:57;;;;;;;18.60;6.70;;;;;;;17.39;100.00;100061.91;5141677;55;1142868;-78
2024/04/09 03:11:05;;;;;;;19.47;8.07;;;;;;;17.35;100.00;100059.75;5089810;56;1143012;-78
2024/04/09 03:16:22;;;;;;;16.47;7.07;;;;;;;17.22;100.00;100057.13;5162973;55;1142788;-78
2024/04/09 03:21:28;;;;;;;24.07;8.90;;;;;;;17.06;100.00;100063.87;5161627;56;1142779;-78
2024/04/09 03:26:34;;;;;;;34.92;10.72;;;;;;;17.00;100.00;100063.70;5185148;55;1142970;-79
2024/04/09 03:31:39;;;;;;;28.17;9.37;;;;;;;17.00;100.00;100068.55;5163237;55;1144752;-79
2024/04/09 03:36:45;;;;;;;24.27;8.63;;;;;;;16.96;100.00;100065.08;5148864;55;1142920;-79
2024/04/09 03:41:51;;;;;;;22.83;9.17;;;;;;;16.95;100.00;100058.90;5184520;55;1142928;-78
2024/04/09 03:46:57;;;;;;;25.83;8.17;;;;;;;16.98;100.00;100059.03;5164531;55;1142703;-78
2024/04/09 03:52:03;;;;;;;26.40;9.23;;;;;;;16.96;100.00;100063.20;5150731;55;1142604;-79
2024/04/09 03:57:09;;;;;;;23.00;8.87;;;;;;;16.91;100.00;100054.06;5164626;55;1142660;-80
2024/04/09 04:02:15;;;;;;;18.70;7.33;;;;;;;16.83;100.00;100058.91;5184838;55;1143125;-79
2024/04/09 04:07:21;;;;;;;12.70;7.73;;;;;;;16.75;100.00;100056.27;5102796;56;1142887;-80
2024/04/09 04:12:27;;;;;;;16.32;7.72;;;;;;;16.66;100.00;100059.44;5091259;56;1143315;-80
2024/04/09 04:17:33;;;;;;;19.62;8.75;;;;;;;16.67;100.00;100061.10;5099076;56;1142685;-80
2024/04/09 04:22:38;;;;;;;36.30;10.70;;;;;;;16.71;100.00;100052.26;5078689;55;1142658;-80
2024/04/09 04:27:44;;;;;;;39.53;11.60;;;;;;;16.66;100.00;100051.42;5078533;55;1144841;-80
2024/04/09 04:32:50;;;;;;;25.90;9.30;;;;;;;16.65;100.00;100055.09;5053993;55;1145478;-80
2024/04/09 04:37:56;;;;;;;24.93;8.17;;;;;;;16.68;100.00;100058.77;5075280;57;1142755;-80
2024/04/09 04:43:02;;;;;;;23.80;8.63;;;;;;;16.72;100.00;100050.76;5078260;56;1142638;-80
2024/04/09 04:48:07;;;;;;;24.67;8.67;;;;;;;16.74;100.00;100049.25;5098974;56;1142601;-80
2024/04/09 04:53:14;;;;;;;33.60;9.17;;;;;;;16.58;100.00;100040.73;5079007;56;1142986;-80
2024/04/09 04:58:20;;;;;;;21.60;7.73;;;;;;;16.58;100.00;100039.91;5078665;55;1142734;-79
2024/04/09 05:03:26;;;;;;;24.43;7.40;;;;;;;16.62;100.00;100038.07;5094645;55;1143141;-79
2024/04/09 05:08:32;;;;;;;17.57;7.10;;;;;;;16.68;100.00;100042.75;5078827;55;1143049;-79
2024/04/09 05:13:37;;;;;;;18.42;7.00;;;;;;;16.68;100.00;100041.91;5079345;55;1142926;-79
2024/04/09 05:18:43;;;;;;;22.23;5.63;;;;;;;16.64;100.00;100041.94;5036088;56;1142834;-79
2024/04/09 05:23:49;;;;;;;14.33;5.53;;;;;;;16.69;100.00;100045.75;5078737;54;1142779;-80
2024/04/09 05:28:55;;;;;;;27.43;7.40;;;;;;;16.78;100.00;100040.74;5037226;55;1142667;-79
2024/04/09 05:34:01;;;;;;;11.47;5.00;;;;;;;16.85;100.00;100042.21;5030174;57;1142648;-79
2024/04/09 05:39:08;;;;;;;7.20;4.83;;;;;;;16.92;100.00;100035.19;5078195;57;1143064;-79
2024/04/09 05:44:14;;;;;;;9.90;5.40;;;;;;;16.99;100.00;100045.51;5087540;55;1140901;-79
2024/04/09 05:49:21;;;;;;;22.47;5.07;;;;;;;17.07;100.00;100044.66;5078192;55;1141096;-79
2024/04/09 05:54:27;;;;;;;9.90;4.80;;;;;;;17.22;100.00;100041.09;5046410;55;1143033;-78
2024/04/09 05:59:34;;;;;;;18.15;5.40;;;;;;;17.36;100.00;100048.89;4996656;56;1140966;-79
2024/04/09 06:04:39;;;;;;;21.37;5.28;;;;;;;17.52;100.00;100048.81;4996441;56;1142865;-79
2024/04/09 06:09:46;;;;;;;6.50;4.97;;;;;;;17.63;100.00;100049.41;5015855;56;1142912;-78
2024/04/09 06:14:54;;;;;;;38.83;5.27;;;;;;;17.68;100.00;100053.77;5017450;56;1141069;-78
2024/04/09 06:20:00;;;;;;;10.87;4.87;;;;;;;17.74;100.00;100040.50;5099501;56;1142625;-79
2024/04/09 06:25:12;;;;;;;7.93;4.30;;;;;;;17.84;100.00;100041.13;5134185;56;1142722;-79
2024/04/09 06:30:13;;;;;;;6.60;4.37;;;;;;;17.98;100.00;100040.03;5128876;56;1140911;-78
2024/04/09 06:35:19;;;;;;;5.70;5.08;;;;;;;18.09;100.00;100040.95;5130436;56;1140667;-79
2024/04/09 06:40:25;;;;;;;6.73;4.03;;;;;;;18.15;100.00;100032.21;5149500;56;1150127;-80
2024/04/09 06:45:31;;;;;;;7.55;4.17;;;;;;;18.20;100.00;100029.30;5129560;56;1141044;-78
2024/04/09 06:50:37;;;;;;;13.87;4.03;;;;;;;18.34;100.00;100038.89;5077825;56;1140953;-79
2024/04/09 06:55:49;;;;;;;14.30;5.40;;;;;;;18.46;100.00;100028.92;5064278;57;1142947;-79
2024/04/09 07:00:50;;;;;;;14.70;4.57;;;;;;;18.59;100.00;100031.00;5044929;56;1142669;-79
2024/04/09 07:05:56;;;;;;;13.40;4.65;;;;;;;18.71;100.00;100023.34;5044202;57;1142924;-79
2024/04/09 07:11:02;;;;;;;8.60;4.90;;;;;;;18.89;100.00;100015.28;5081963;56;1142693;-80
2024/04/09 07:16:09;;;;;;;6.33;4.37;;;;;;;18.99;100.00;100008.28;5129389;56;1140609;-80
2024/04/09 07:21:15;;;;;;;8.90;4.40;;;;;;;19.11;100.00;100014.83;5129590;55;1140612;-80
2024/04/09 07:26:22;;;;;;;12.93;4.20;;;;;;;19.28;100.00;100018.98;5130210;55;1140860;-81
2024/04/09 07:31:28;;;;;;;9.88;3.72;;;;;;;19.47;100.00;100009.52;5149525;56;1143037;-81
2024/04/09 07:36:34;;;;;;;7.35;3.35;;;;;;;19.66;100.00;100004.92;5129022;55;1140878;-81
2024/04/09 07:41:40;;;;;;;12.10;3.50;;;;;;;19.85;100.00;99999.44;5129489;55;1140583;-80
2024/04/09 07:46:52;;;;;;;8.75;3.30;;;;;;;20.10;100.00;99993.67;5148508;55;1140798;-80
2024/04/09 07:51:53;;;;;;;7.28;3.33;;;;;;;20.28;100.00;99990.00;5129073;54;1138545;-80
2024/04/09 07:56:59;;;;;;;7.78;3.27;;;;;;;20.49;100.00;99995.86;5128831;55;1138729;-80
2024/04/09 08:02:05;;;;;;;4.72;2.80;;;;;;;20.70;97.94;99990.44;5149559;55;1138858;-80
2024/04/09 08:07:11;;;;;;;7.78;3.40;;;;;;;20.86;97.19;99992.80;5129479;55;1136327;-80
2024/04/09 08:12:16;;;;;;;8.13;2.77;;;;;;;21.06;94.63;100001.81;5128918;55;1136448;-80
2024/04/09 08:17:22;;;;;;;15.13;3.22;;;;;;;21.22;95.31;100002.02;5111260;56;1138646;-80
2024/04/09 08:22:28;;;;;;;7.37;2.62;;;;;;;21.41;94.05;99998.55;5083431;56;1140740;-81
2024/04/09 08:27:42;;;;;;;7.08;3.27;;;;;;;21.55;93.18;99990.00;5024889;57;1136781;-80
2024/04/09 08:32:44;;;;;;;6.15;3.42;;;;;;;21.78;94.08;99984.79;5097968;55;1136586;-80
2024/04/09 08:37:50;;;;;;;5.30;2.62;;;;;;;22.03;93.76;99981.84;5103463;56;1136481;-80
2024/04/09 08:42:59;;;;;;;5.83;2.98;;;;;;;22.27;89.06;99973.16;5164819;55;1136393;-80
2024/04/09 08:48:09;;;;;;;5.55;2.90;;;;;;;22.40;87.80;99972.31;5126698;56;1136832;-80
2024/04/09 08:53:18;;;;;;;5.45;2.85;;;;;;;22.51;90.28;99963.58;5164946;55;1136292;-81
2024/04/09 08:58:27;;;;;;;10.23;2.35;;;;;;;22.71;91.25;99968.42;5162106;55;1250172;-81
2024/04/09 09:03:32;;;;;;;10.28;2.37;;;;;;;22.93;90.02;99960.91;5184143;55;1138887;-81
2024/04/09 09:08:43;;;;;;;10.18;3.15;;;;;;;23.20;83.59;99971.62;5164055;55;1138549;-81
2024/04/09 09:13:49;;;;;;;15.30;4.03;;;;;;;23.27;82.77;99979.14;5164249;55;1138680;-81
2024/04/09 09:19:09;;;;;;;5.33;3.60;;;;;;;23.39;84.21;99985.52;5183788;55;1139264;-80
2024/04/09 09:24:11;;;;;;;8.70;2.70;;;;;;;23.46;84.60;99984.45;5178571;55;1136365;-80
2024/04/09 09:29:17;;;;;;;11.43;2.87;;;;;;;23.52;81.83;99981.98;5185263;55;1136817;-81
2024/04/09 09:34:45;;;;;;;3.87;2.33;;;;;;;23.61;82.66;99968.00;5205079;55;1138527;-80
2024/04/09 09:39:53;;;;;;;3.65;2.45;;;;;;;23.76;81.18;99964.99;5185022;55;1136683;-80
2024/04/09 09:44:59;;;;;;;7.20;2.62;;;;;;;23.92;81.39;99965.81;5183719;55;1136512;-81
2024/04/09 09:50:08;;;;;;;12.03;2.77;;;;;;;24.05;74.85;99966.23;5203527;55;1136811;-80
2024/04/09 09:55:13;;;;;;;13.38;3.22;;;;;;;24.05;73.66;99964.88;5184825;56;1138497;-81
2024/04/09 10:00:20;;;;;;;6.85;2.70;;;;;;;24.15;73.35;99964.68;5185521;55;1138524;-81
2024/04/09 10:05:32;;;;;;;5.75;2.20;;;;;;;24.19;73.71;99962.37;5205411;55;1136406;-81
2024/04/09 10:10:39;;;;;;;5.50;1.67;;;;;;;24.25;71.87;99950.72;5185262;55;1136905;-81
2024/04/09 10:15:48;;;;;;;8.40;2.53;;;;;;;24.25;71.70;99946.66;5158232;55;1136505;-81
2024/04/09 10:20:55;;;;;;;8.50;2.50;;;;;;;24.34;70.54;99935.86;5205544;55;1136490;-81
2024/04/09 10:26:01;;;;;;;4.97;1.92;;;;;;;24.47;68.40;99937.60;5171264;56;1136813;-80
2024/04/09 10:31:10;;;;;;;13.85;3.25;;;;;;;24.61;70.36;99927.47;5164774;55;1136512;-81
2024/04/09 10:36:16;;;;;;;3.78;2.52;;;;;;;24.82;71.13;99937.33;5164424;55;1138927;-81
2024/04/09 10:41:21;;;;;;;10.05;2.27;;;;;;;24.96;68.04;99942.61;5182129;55;1136619;-81
2024/04/09 10:46:27;;;;;;;14.00;2.60;;;;;;;25.13;70.13;99936.88;5162674;55;1138750;-80
2024/04/09 10:51:33;;;;;;;6.53;2.20;;;;;;;25.31;66.22;99930.09;5165061;55;1138686;-81
2024/04/09 10:56:39;;;;;;;14.05;2.72;;;;;;;25.30;64.93;99915.42;5185046;55;1136678;-81
2024/04/09 11:01:45;;;;;;;11.70;3.27;;;;;;;25.40;64.93;99904.86;5165063;55;1148128;-81
2024/04/09 11:06:52;;;;;;;11.90;2.87;;;;;;;25.50;62.27;99897.84;5164932;55;1138948;-80
2024/04/09 11:11:58;;;;;;;7.62;2.35;;;;;;;25.61;64.19;99894.86;5184987;55;1138916;-81
2024/04/09 11:17:04;;;;;;;5.50;1.90;;;;;;;25.76;64.82;99893.92;5164165;55;1136295;-80
2024/04/09 11:22:11;;;;;;;10.48;2.60;;;;;;;25.90;58.88;99899.95;5164721;55;1136753;-80
2024/04/09 11:27:16;;;;;;;8.70;2.70;;;;;;;25.96;59.07;99891.42;5174841;55;1138916;-81
2024/04/09 11:32:22;;;;;;;18.77;3.12;;;;;;;25.97;58.62;99889.02;5205270;55;1137013;-81
2024/04/09 11:37:28;;;;;;;14.93;3.17;;;;;;;26.12;55.93;99869.87;5165986;55;1138997;-80
2024/04/09 11:42:34;;;;;;;6.70;2.55;;;;;;;26.16;55.40;99865.60;5168534;55;1138818;-81
2024/04/09 11:47:39;;;;;;;5.03;2.45;;;;;;;26.33;59.36;99858.14;5160166;55;1136462;-81
2024/04/09 11:52:45;;;;;;;5.28;2.62;;;;;;;26.43;61.91;99861.89;5124024;55;1136385;-81
2024/04/09 11:57:51;;;;;;;8.35;2.35;;;;;;;26.57;60.47;99854.34;5184853;55;1136847;-81
2024/04/09 12:02:57;;;;;;;8.10;2.98;;;;;;;26.58;60.10;99851.36;5130892;55;1138142;-81
2024/04/09 12:08:03;;;;;;;6.42;3.15;;;;;;;26.75;62.68;99843.30;5089140;56;1136971;-81
2024/04/09 12:13:08;;;;;;;16.48;2.72;;;;;;;26.87;62.29;99844.64;5099192;56;1136743;-81
2024/04/09 12:18:16;;;;;;;13.35;3.10;;;;;;;26.94;62.07;99843.44;5181109;55;1138533;-81
2024/04/09 12:23:22;;;;;;;16.82;3.70;;;;;;;26.96;61.76;99844.56;5221750;55;1138812;-81
2024/04/09 12:28:28;;;;;;;16.48;3.58;;;;;;;26.95;61.20;99845.09;5118703;55;1138912;-81
2024/04/09 12:33:34;;;;;;;9.68;3.27;;;;;;;26.95;62.68;99837.48;5183518;55;1138792;-81
2024/04/09 12:38:40;;;;;;;6.20;2.40;;;;;;;26.92;60.42;99829.25;5195103;55;1136709;-81
2024/04/09 12:43:46;;;;;;;4.20;2.12;;;;;;;26.99;61.62;99822.90;5185017;55;1136327;-81
2024/04/09 12:48:51;;;;;;;3.50;2.45;;;;;;;27.07;60.82;99830.63;5166056;55;1136538;-81
2024/04/09 12:53:57;;;;;;;9.88;2.55;;;;;;;27.05;58.90;99835.48;5053653;57;1136870;-81
2024/04/09 12:59:03;;;;;;;11.85;2.52;;;;;;;27.02;58.79;99825.13;5052981;56;1136446;-82
2024/04/09 13:04:10;;;;;;;7.45;3.08;;;;;;;26.96;57.83;99829.09;4999442;56;1138678;-81
2024/04/09 13:09:15;;;;;;;4.17;2.67;;;;;;;26.94;60.36;99820.38;5043071;56;1136838;-82
2024/04/09 13:14:21;;;;;;;9.03;3.08;;;;;;;27.03;58.59;99812.68;5054215;56;1136683;-81
2024/04/09 13:19:27;;;;;;;13.45;2.98;;;;;;;27.06;55.98;99824.91;5058313;56;1136553;-81
2024/04/09 13:24:33;;;;;;;3.92;2.22;;;;;;;26.98;56.35;99815.29;5053171;56;1138712;-81
2024/04/09 13:29:38;;;;;;;9.75;2.77;;;;;;;26.95;55.74;99803.02;5200158;55;1136611;-81
2024/04/09 13:34:45;;;;;;;9.75;2.70;;;;;;;26.96;57.37;99798.42;5160253;55;1136829;-81
2024/04/09 13:39:51;;;;;;;11.43;2.22;;;;;;;27.03;58.79;99803.18;5156704;55;1136579;-82
2024/04/09 13:44:57;;;;;;;6.45;2.15;;;;;;;27.13;56.61;99802.53;5182874;55;1138744;-82
2024/04/09 13:50:09;;;;;;;9.58;2.25;;;;;;;27.23;58.46;99796.73;5078901;56;1136304;-81
2024/04/09 13:55:10;;;;;;;7.00;2.50;;;;;;;27.33;54.99;99798.81;5077341;56;1136345;-81
2024/04/09 14:00:17;;;;;;;10.28;2.05;;;;;;;27.34;53.34;99804.54;5079034;56;1136417;-82
2024/04/09 14:05:24;;;;;;;7.75;2.25;;;;;;;27.37;53.39;99796.41;5098212;56;1138825;-83
2024/04/09 14:10:30;;;;;;;5.70;1.82;;;;;;;27.43;52.46;99790.83;5089995;55;1137021;-83
2024/04/09 14:15:36;;;;;;;10.58;2.10;;;;;;;27.55;53.13;99789.38;5111252;55;1136775;-83
2024/04/09 14:20:48;;;;;;;10.18;2.00;;;;;;;27.58;53.68;99788.39;5164292;55;1138734;-84
2024/04/09 14:25:52;;;;;;;5.33;2.10;;;;;;;27.64;53.80;99787.41;5115471;56;1138593;-84
2024/04/09 14:30:58;;;;;;;7.08;1.95;;;;;;;27.84;53.82;99784.69;5080609;56;1136392;-84
2024/04/09 14:36:05;;;;;;;9.45;4.00;;;;;;;27.96;51.50;99797.09;5179148;55;1136688;-82
2024/04/09 14:41:12;;;;;;;4.83;1.70;;;;;;;28.00;52.84;99799.61;5123513;56;1136902;-85
2024/04/09 14:46:18;;;;;;;11.12;2.62;;;;;;;27.89;45.11;99808.70;5163688;55;1136526;-84
2024/04/09 14:51:25;;;;;;;6.53;2.02;;;;;;;27.77;45.43;99811.23;5185222;55;1138538;-82
2024/04/09 14:56:31;;;;;;;9.98;3.35;;;;;;;27.70;45.56;99809.20;5165614;55;1136618;-82
2024/04/09 15:01:36;;;;;;;6.90;4.35;;;;;;;27.69;48.51;99811.09;5164100;55;1136424;-84
2024/04/09 15:06:42;;;;;;;9.23;2.50;;;;;;;27.79;47.14;99810.45;5180325;55;1136726;-83
2024/04/09 15:11:50;;;;;;;11.53;1.80;;;;;;;27.82;45.57;99807.20;5080291;55;1136444;-83
2024/04/09 15:16:56;;;;;;;14.18;2.60;;;;;;;27.83;47.57;99799.34;5093650;55;1138728;-84
2024/04/09 15:22:02;;;;;;;9.68;1.70;;;;;;;27.72;44.14;99799.73;5045846;56;1138701;-83
2024/04/09 15:27:08;;;;;;;5.25;2.27;;;;;;;27.58;43.48;99799.79;5271038;55;1136296;-82
2024/04/09 15:32:14;;;;;;;9.15;1.98;;;;;;;27.50;44.73;99809.69;5155561;56;1136239;-82
2024/04/09 15:37:20;;;;;;;6.55;2.25;;;;;;;27.44;45.39;99814.20;5200713;55;1136680;-82
2024/04/09 15:42:26;;;;;;;19.50;5.55;;;;;;;27.32;43.84;99818.89;5253041;56;1136368;-82
2024/04/09 15:47:32;;;;;;;11.43;2.80;;;;;;;27.22;45.60;99815.45;5160735;55;1138313;-82
2024/04/09 15:52:38;;;;;;;12.47;3.30;;;;;;;27.12;46.47;99814.45;5082617;56;1138637;-82
2024/04/09 15:57:44;;;;;;;5.12;3.77;;;;;;;27.07;47.05;99815.17;5326301;55;1138492;-84
2024/04/09 16:02:50;;;;;;;17.42;7.80;;;;;;;27.05;48.22;99803.73;5078907;56;1233927;-84
2024/04/09 16:07:56;;;;;;;10.55;3.58;;;;;;;27.00;47.33;99803.66;5278951;54;1138965;-82
2024/04/09 16:13:01;;;;;;;32.93;18.60;;;;;;;26.95;47.55;99813.05;5119549;56;1138938;-84
2024/04/09 16:18:07;;;;;;;20.90;8.90;;;;;;;26.87;48.20;99810.72;5027621;56;1140514;-84
2024/04/09 16:23:13;;;;;;;57.10;18.80;;;;;;;26.78;47.97;99809.44;5272835;55;1138464;-83
2024/04/09 16:28:18;;;;;;;14.47;5.10;;;;;;;26.70;48.56;99821.52;5168253;55;1140797;-83
2024/04/09 16:33:24;;;;;;;18.42;5.55;;;;;;;26.61;49.01;99816.98;5176374;56;1138682;-84
2024/04/09 16:38:30;;;;;;;13.35;2.20;;;;;;;26.52;48.86;99816.25;5161603;56;1138500;-84
2024/04/09 16:43:36;;;;;;;18.57;3.85;;;;;;;26.42;49.09;99818.23;5071169;56;1138582;-84
2024/04/09 16:48:43;;;;;;;20.43;3.80;;;;;;;26.35;49.68;99824.30;4978708;58;1138766;-82
2024/04/09 16:53:48;;;;;;;11.20;2.40;;;;;;;26.25;50.06;99823.53;4950065;57;1138577;-82
2024/04/09 16:58:56;;;;;;;7.17;2.80;;;;;;;26.17;50.50;99833.90;5056940;58;1138422;-82
2024/04/09 17:04:02;;;;;;;6.67;2.50;;;;;;;26.04;50.87;99836.86;4980405;57;1136460;-82
2024/04/09 17:09:11;;;;;;;9.33;3.50;;;;;;;25.96;51.37;99844.00;4878987;58;1136905;-81
2024/04/09 17:14:16;;;;;;;6.42;3.65;;;;;;;25.89;51.93;99846.81;4865252;58;1136256;-82
2024/04/09 17:19:21;;;;;;;9.28;3.10;;;;;;;25.83;52.31;99856.70;4874675;57;1136454;-83
2024/04/09 17:24:27;;;;;;;23.02;4.95;;;;;;;25.77;52.60;99855.47;5198222;57;1136427;-83
2024/04/09 17:29:35;;;;;;;14.13;3.15;;;;;;;25.71;52.83;99859.11;5215930;55;1138617;-82
2024/04/09 17:34:43;;;;;;;10.60;3.10;;;;;;;25.59;52.93;99866.66;5240964;56;1138611;-81
2024/04/09 17:39:48;;;;;;;8.30;4.40;;;;;;;25.43;53.12;99863.79;5281840;55;1138940;-79
2024/04/09 17:44:54;;;;;;;9.18;3.47;;;;;;;25.28;53.74;99868.81;5146993;56;1136811;-80
2024/04/09 17:50:00;;;;;;;21.57;4.92;;;;;;;25.18;54.95;99872.08;5118938;56;1136529;-82
2024/04/09 17:55:07;;;;;;;59.35;18.55;;;;;;;25.12;55.94;99877.05;5098574;56;1138392;-82
2024/04/09 18:00:13;;;;;;;59.45;21.02;;;;;;;25.01;56.80;99888.13;5078812;56;1140695;-82
2024/04/09 18:05:18;;;;;;;46.98;20.85;;;;;;;24.88;58.01;99893.16;5123994;55;1141234;-83
2024/04/09 18:10:24;;;;;;;88.45;21.37;;;;;;;24.52;58.94;99880.47;5172672;55;1141010;-82
2024/04/09 18:15:30;;;;;;;161.03;22.15;;;;;;;24.32;60.01;99891.18;5164529;56;1140692;-82
2024/04/09 18:20:36;;;;;;;166.25;20.75;;;;;;;24.04;60.97;99892.45;5132717;55;1142659;-81
2024/04/09 18:25:41;;;;;;;113.92;13.25;;;;;;;23.84;62.05;99903.95;5057885;57;1142719;-80
2024/04/09 18:30:57;;;;;;;83.05;8.90;;;;;;;23.61;62.97;99909.95;5058708;56;1142440;-81
2024/04/09 18:36:05;;;;;;;23.92;4.72;;;;;;;23.44;64.09;99909.61;5116356;56;1138291;-80
2024/04/09 18:41:11;;;;;;;18.90;3.80;;;;;;;23.30;65.08;99913.44;5094902;56;1138774;-80
2024/04/09 18:46:17;;;;;;;15.72;4.03;;;;;;;23.22;66.11;99916.92;5092588;56;1138913;-81
2024/04/09 18:51:24;;;;;;;12.63;5.35;;;;;;;23.19;67.02;99924.09;5150106;56;1138539;-81
2024/04/09 18:56:30;;;;;;;9.33;3.50;;;;;;;23.11;67.90;99931.90;5198666;57;1138751;-81
2024/04/09 19:01:36;;;;;;;15.30;4.20;;;;;;;22.95;68.24;99934.55;5104949;56;1136928;-80
2024/04/09 19:06:42;;;;;;;25.08;5.45;;;;;;;22.93;69.42;99938.50;5127827;56;1139125;-80
2024/04/09 19:11:47;;;;;;;29.73;4.10;;;;;;;22.82;69.74;99933.27;5113163;56;1138514;-80
2024/04/09 19:16:53;;;;;;;17.57;4.15;;;;;;;22.73;70.22;99939.91;5128805;55;1139004;-80
2024/04/09 19:21:59;;;;;;;20.66;3.70;;;;;;;22.65;70.97;99936.91;5223867;55;1138547;-80
2024/04/09 19:27:05;;;;;;;14.33;3.10;;;;;;;22.62;71.60;99933.80;5185453;55;1139006;-80
2024/04/09 19:32:11;;;;;;;16.35;3.92;;;;;;;22.57;71.90;99939.84;5133922;56;1138512;-80
2024/04/09 19:37:20;;;;;;;18.87;4.60;;;;;;;22.51;72.33;99945.23;5009986;56;1138707;-82
2024/04/09 19:42:24;;;;;;;13.35;3.60;;;;;;;22.46;73.06;99945.34;4952271;56;1138534;-82
2024/04/09 19:47:30;;;;;;;26.95;12.05;;;;;;;22.24;72.76;99956.57;5041403;57;1138650;-79
2024/04/09 19:52:35;;;;;;;28.20;13.43;;;;;;;21.64;72.90;99974.00;5122329;56;1140640;-81
2024/04/09 19:57:43;;;;;;;90.96;65.30;;;;;;;21.04;75.36;100003.03;5154705;55;1140870;-81
2024/04/09 20:02:49;;;;;;;82.75;59.63;;;;;;;20.51;77.11;100027.39;5036202;57;1142769;-81
2024/04/09 20:07:55;;;;;;;29.75;10.08;;;;;;;20.37;78.55;100034.52;5164110;55;1142797;-81
2024/04/09 20:13:02;;;;;;;16.45;7.22;;;;;;;20.42;79.17;100042.84;5163475;55;1142826;-83
2024/04/09 20:18:08;;;;;;;35.90;11.53;;;;;;;20.56;86.91;100044.59;5118806;56;1140674;-83
2024/04/09 20:23:14;;;;;;;16.97;5.70;;;;;;;20.76;88.77;100064.91;5109930;55;1143526;-81
2024/04/09 20:28:20;;;;;;;24.30;7.45;;;;;;;20.80;94.69;100084.14;5127488;55;1140616;-80
2024/04/09 20:33:27;;;;;;;30.82;7.42;;;;;;;20.63;91.10;100118.53;5175996;55;1140409;-79
2024/04/09 20:38:34;;;;;;;32.63;8.95;;;;;;;20.32;89.41;100143.00;5164016;55;1140561;-80
2024/04/09 20:43:39;;;;;;;33.08;9.04;;;;;;;20.07;89.75;100150.59;5161655;55;1140865;-80
2024/04/09 20:48:46;;;;;;;20.37;6.00;;;;;;;19.81;88.64;100150.29;5184367;55;1140764;-78
2024/04/09 20:53:54;;;;;;;24.27;6.67;;;;;;;19.33;88.66;100176.64;5173093;55;1140916;-79
2024/04/09 20:59:00;;;;;;;20.55;6.72;;;;;;;19.33;88.66;100176.64;5186873;55;1140735;-79
2024/04/09 21:04:10;;;;;;;15.15;4.25;;;;;;;19.16;86.64;100192.05;5098653;56;1140459;-79
2024/04/09 21:09:14;;;;;;;16.87;3.92;;;;;;;18.88;86.43;100219.11;5074663;57;1140416;-79
2024/04/09 21:14:19;;;;;;;15.73;3.30;;;;;;;18.62;86.76;100235.56;5090255;56;1140666;-79
2024/04/09 21:19:25;;;;;;;14.83;5.03;;;;;;;18.50;86.06;100254.33;5185042;55;1140635;-79
2024/04/09 21:24:31;;;;;;;14.03;3.90;;;;;;;18.33;86.25;100260.81;5149740;55;1140974;-79
2024/04/09 21:29:37;;;;;;;14.20;3.83;;;;;;;18.14;87.30;100271.43;5108594;56;1140800;-78
2024/04/09 21:34:42;;;;;;;4.92;2.40;;;;;;;18.03;87.76;100286.00;5184620;55;1140551;-79
2024/04/09 21:39:48;;;;;;;17.03;5.60;;;;;;;17.91;88.57;100306.95;5164202;55;1138746;-79
2024/04/09 21:44:54;;;;;;;8.35;2.67;;;;;;;17.83;88.91;100312.34;5163698;55;1141020;-78
2024/04/09 21:50:00;;;;;;;12.93;4.28;;;;;;;17.71;90.42;100317.72;5088217;55;1138896;-79
2024/04/09 21:55:06;;;;;;;6.22;2.15;;;;;;;17.61;90.30;100329.05;5024883;57;1140977;-79
2024/04/09 22:00:20;;;;;;;9.27;4.03;;;;;;;17.46;93.04;100338.25;5024778;57;1138675;-79
2024/04/09 22:05:19;;;;;;;7.30;3.10;;;;;;;17.40;92.18;100345.63;5024073;57;1138811;-79
2024/04/09 22:10:25;;;;;;;10.53;2.80;;;;;;;17.32;93.96;100353.62;5051521;56;1138754;-79
2024/04/09 22:15:31;;;;;;;7.73;2.20;;;;;;;17.32;93.96;100373.67;5107855;56;1140979;-79
2024/04/09 22:20:41;;;;;;;11.67;2.33;;;;;;;17.29;93.19;100379.34;5106793;56;1138478;-80
2024/04/09 22:25:48;;;;;;;4.67;2.67;;;;;;;17.23;93.89;100377.36;5126878;56;1140903;-80
2024/04/09 22:30:54;;;;;;;8.68;3.10;;;;;;;17.18;94.35;100389.87;5163943;55;1138476;-79
2024/04/09 22:36:00;;;;;;;6.12;2.20;;;;;;;17.15;94.66;100402.22;5164642;55;1138729;-79
2024/04/09 22:41:05;;;;;;;8.40;2.63;;;;;;;17.20;94.40;100411.09;5045717;57;1138692;-79
2024/04/09 22:46:11;;;;;;;11.30;2.83;;;;;;;17.23;94.40;100414.78;5164753;55;1138868;-79
2024/04/09 22:51:17;;;;;;;7.63;3.63;;;;;;;17.21;94.89;100416.77;5164607;55;1140640;-78
2024/04/09 22:56:22;;;;;;;10.85;3.62;;;;;;;17.11;96.18;100416.90;5165010;56;1138668;-79
2024/04/09 23:01:28;;;;;;;18.83;5.23;;;;;;;16.95;97.08;100426.73;5185300;56;1140865;-78
2024/04/09 23:06:34;;;;;;;12.73;5.60;;;;;;;16.88;97.77;100427.87;5164965;56;1140924;-79